sensor_id;sensor_type;location;lat;lon;timestamp;temperature;humidity
17027;DHT22;8630;50.500;12.164;2022-08-25T00:00:46;17.90;99.90
17027;DHT22;8630;50.500;12.164;2022-08-25T00:03:14;17.90;99.90
17027;DHT22;8630;50.500;12.164;2022-08-25T00:05:41;17.80;99.90
17027;DHT22;8630;50.500;12.164;2022-08-25T00:08:08;17.70;99.90
17027;DHT22;8630;50.500;12.164;2022-08-25T00:10:37;17.70;99.90
17027;DHT22;8630;50.500;12.164;2022-08-25T00:13:04;17.70;99.90
17027;DHT22;8630;50.500;12.164;2022-08-25T00:15:35;17.60;99.90
17027;DHT22;8630;50.500;12.164;2022-08-25T00:18:03;17.60;99.90
17027;DHT22;8630;50.500;12.164;2022-08-25T00:20:30;17.50;99.90
17027;DHT22;8630;50.500;12.164;2022-08-25T00:22:58;17.60;99.90
17027;DHT22;8630;50.500;12.164;2022-08-25T00:25:24;17.60;99.90
17027;DHT22;8630;50.500;12.164;2022-08-25T00:27:52;17.60;99.90
17027;DHT22;8630;50.500;12.164;2022-08-25T00:30:19;17.50;99.90
17027;DHT22;8630;50.500;12.164;2022-08-25T00:32:47;17.50;99.90
17027;DHT22;8630;50.500;12.164;2022-08-25T00:35:15;17.50;99.90
17027;DHT22;8630;50.500;12.164;2022-08-25T00:37:42;17.50;99.90
17027;DHT22;8630;50.500;12.164;2022-08-25T00:40:10;17.40;99.90
17027;DHT22;8630;50.500;12.164;2022-08-25T00:42:37;17.40;99.90
17027;DHT22;8630;50.500;12.164;2022-08-25T00:45:06;17.40;99.90
17027;DHT22;8630;50.500;12.164;2022-08-25T00:47:34;17.40;99.90
17027;DHT22;8630;50.500;12.164;2022-08-25T00:50:06;17.40;99.90
17027;DHT22;8630;50.500;12.164;2022-08-25T00:52:37;17.40;99.90
17027;DHT22;8630;50.500;12.164;2022-08-25T00:55:08;17.40;99.90
17027;DHT22;8630;50.500;12.164;2022-08-25T00:57:42;17.30;99.90
17027;DHT22;8630;50.500;12.164;2022-08-25T01:00:13;17.30;99.90
17027;DHT22;8630;50.500;12.164;2022-08-25T01:02:41;17.30;99.90
17027;DHT22;8630;50.500;12.164;2022-08-25T01:05:09;17.20;99.90
17027;DHT22;8630;50.500;12.164;2022-08-25T01:07:37;17.20;99.90
17027;DHT22;8630;50.500;12.164;2022-08-25T01:10:07;17.20;99.90
17027;DHT22;8630;50.500;12.164;2022-08-25T01:12:35;17.20;99.90
17027;DHT22;8630;50.500;12.164;2022-08-25T01:15:05;17.10;99.90
17027;DHT22;8630;50.500;12.164;2022-08-25T01:17:34;17.10;99.90
17027;DHT22;8630;50.500;12.164;2022-08-25T01:20:01;17.10;99.90
17027;DHT22;8630;50.500;12.164;2022-08-25T01:22:29;17.10;99.90
17027;DHT22;8630;50.500;12.164;2022-08-25T01:25:00;17.10;99.90
17027;DHT22;8630;50.500;12.164;2022-08-25T01:27:28;17.10;99.90
17027;DHT22;8630;50.500;12.164;2022-08-25T01:29:55;17.00;99.90
17027;DHT22;8630;50.500;12.164;2022-08-25T01:32:23;17.10;99.90
17027;DHT22;8630;50.500;12.164;2022-08-25T01:34:50;17.00;99.90
17027;DHT22;8630;50.500;12.164;2022-08-25T01:37:17;17.00;99.90
17027;DHT22;8630;50.500;12.164;2022-08-25T01:39:46;17.00;99.90
17027;DHT22;8630;50.500;12.164;2022-08-25T01:42:32;17.00;99.90
17027;DHT22;8630;50.500;12.164;2022-08-25T01:45:04;16.90;99.90
17027;DHT22;8630;50.500;12.164;2022-08-25T01:47:31;16.90;99.90
17027;DHT22;8630;50.500;12.164;2022-08-25T01:49:59;16.90;99.90
17027;DHT22;8630;50.500;12.164;2022-08-25T01:52:32;16.90;99.90
17027;DHT22;8630;50.500;12.164;2022-08-25T01:55:04;16.80;99.90
17027;DHT22;8630;50.500;12.164;2022-08-25T01:57:31;16.80;99.90
17027;DHT22;8630;50.500;12.164;2022-08-25T01:59:58;16.80;99.90
17027;DHT22;8630;50.500;12.164;2022-08-25T02:02:26;16.80;99.90
17027;DHT22;8630;50.500;12.164;2022-08-25T02:04:53;16.70;99.90
17027;DHT22;8630;50.500;12.164;2022-08-25T02:07:20;16.70;99.90
17027;DHT22;8630;50.500;12.164;2022-08-25T02:09:47;16.70;99.90
17027;DHT22;8630;50.500;12.164;2022-08-25T02:12:15;16.70;99.90
17027;DHT22;8630;50.500;12.164;2022-08-25T02:14:42;16.70;99.90
17027;DHT22;8630;50.500;12.164;2022-08-25T02:17:09;16.60;99.90
17027;DHT22;8630;50.500;12.164;2022-08-25T02:19:36;16.60;99.90
17027;DHT22;8630;50.500;12.164;2022-08-25T02:22:03;16.60;99.90
17027;DHT22;8630;50.500;12.164;2022-08-25T02:24:30;16.60;99.90
17027;DHT22;8630;50.500;12.164;2022-08-25T02:26:57;16.60;99.90
17027;DHT22;8630;50.500;12.164;2022-08-25T02:29:26;16.60;99.90
17027;DHT22;8630;50.500;12.164;2022-08-25T02:31:53;16.60;99.90
17027;DHT22;8630;50.500;12.164;2022-08-25T02:34:20;16.50;99.90
17027;DHT22;8630;50.500;12.164;2022-08-25T02:36:48;16.50;99.90
17027;DHT22;8630;50.500;12.164;2022-08-25T02:39:15;16.50;99.90
17027;DHT22;8630;50.500;12.164;2022-08-25T02:41:43;16.50;99.90
17027;DHT22;8630;50.500;12.164;2022-08-25T02:44:10;16.50;99.90
17027;DHT22;8630;50.500;12.164;2022-08-25T02:46:38;16.40;99.90
17027;DHT22;8630;50.500;12.164;2022-08-25T02:49:06;16.50;99.90
17027;DHT22;8630;50.500;12.164;2022-08-25T02:51:34;16.50;99.90
17027;DHT22;8630;50.500;12.164;2022-08-25T02:54:03;16.40;99.90
17027;DHT22;8630;50.500;12.164;2022-08-25T02:56:31;16.40;99.90
17027;DHT22;8630;50.500;12.164;2022-08-25T02:58:59;16.30;99.90
17027;DHT22;8630;50.500;12.164;2022-08-25T03:01:26;16.30;99.90
17027;DHT22;8630;50.500;12.164;2022-08-25T03:03:55;16.30;99.90
17027;DHT22;8630;50.500;12.164;2022-08-25T03:06:22;16.30;99.90
17027;DHT22;8630;50.500;12.164;2022-08-25T03:08:50;16.30;99.90
17027;DHT22;8630;50.500;12.164;2022-08-25T03:11:18;16.30;99.90
17027;DHT22;8630;50.500;12.164;2022-08-25T03:13:45;16.30;99.90
17027;DHT22;8630;50.500;12.164;2022-08-25T03:16:13;16.20;99.90
17027;DHT22;8630;50.500;12.164;2022-08-25T03:18:41;16.10;99.90
17027;DHT22;8630;50.500;12.164;2022-08-25T03:21:11;16.10;99.90
17027;DHT22;8630;50.500;12.164;2022-08-25T03:23:39;16.10;99.90
17027;DHT22;8630;50.500;12.164;2022-08-25T03:26:06;16.10;99.90
17027;DHT22;8630;50.500;12.164;2022-08-25T03:28:51;16.10;99.90
17027;DHT22;8630;50.500;12.164;2022-08-25T03:31:20;16.10;99.90
17027;DHT22;8630;50.500;12.164;2022-08-25T03:33:47;16.00;99.90
17027;DHT22;8630;50.500;12.164;2022-08-25T03:36:16;16.00;99.90
17027;DHT22;8630;50.500;12.164;2022-08-25T03:38:43;16.00;99.90
17027;DHT22;8630;50.500;12.164;2022-08-25T03:41:12;16.00;99.90
17027;DHT22;8630;50.500;12.164;2022-08-25T03:43:40;16.00;99.90
17027;DHT22;8630;50.500;12.164;2022-08-25T03:46:16;16.00;99.90
17027;DHT22;8630;50.500;12.164;2022-08-25T03:48:44;16.00;99.90
17027;DHT22;8630;50.500;12.164;2022-08-25T03:51:11;16.00;99.90
17027;DHT22;8630;50.500;12.164;2022-08-25T03:53:39;16.00;99.90
17027;DHT22;8630;50.500;12.164;2022-08-25T03:56:06;16.00;99.90
17027;DHT22;8630;50.500;12.164;2022-08-25T03:58:34;16.00;99.90
17027;DHT22;8630;50.500;12.164;2022-08-25T04:01:01;16.00;99.90
17027;DHT22;8630;50.500;12.164;2022-08-25T04:03:29;16.00;99.90
17027;DHT22;8630;50.500;12.164;2022-08-25T04:05:59;15.90;99.90
17027;DHT22;8630;50.500;12.164;2022-08-25T04:08:26;16.00;99.90
17027;DHT22;8630;50.500;12.164;2022-08-25T04:10:55;15.90;99.90
17027;DHT22;8630;50.500;12.164;2022-08-25T04:13:22;15.90;99.90
17027;DHT22;8630;50.500;12.164;2022-08-25T04:15:49;16.00;99.90
17027;DHT22;8630;50.500;12.164;2022-08-25T04:18:16;16.00;99.90
17027;DHT22;8630;50.500;12.164;2022-08-25T04:20:43;16.00;99.90
17027;DHT22;8630;50.500;12.164;2022-08-25T04:23:11;16.00;99.90
17027;DHT22;8630;50.500;12.164;2022-08-25T04:25:39;16.00;99.90
17027;DHT22;8630;50.500;12.164;2022-08-25T04:28:10;16.00;99.90
17027;DHT22;8630;50.500;12.164;2022-08-25T04:30:40;16.00;99.90
17027;DHT22;8630;50.500;12.164;2022-08-25T04:33:07;16.10;99.90
17027;DHT22;8630;50.500;12.164;2022-08-25T04:35:34;16.10;99.90
17027;DHT22;8630;50.500;12.164;2022-08-25T04:38:01;16.20;99.90
17027;DHT22;8630;50.500;12.164;2022-08-25T04:40:29;16.30;99.90
17027;DHT22;8630;50.500;12.164;2022-08-25T04:42:56;16.50;99.90
17027;DHT22;8630;50.500;12.164;2022-08-25T04:45:24;16.80;99.90
17027;DHT22;8630;50.500;12.164;2022-08-25T04:47:51;17.20;99.90
17027;DHT22;8630;50.500;12.164;2022-08-25T04:50:19;17.50;99.90
17027;DHT22;8630;50.500;12.164;2022-08-25T04:52:46;17.80;99.90
17027;DHT22;8630;50.500;12.164;2022-08-25T04:55:14;18.30;99.90
17027;DHT22;8630;50.500;12.164;2022-08-25T04:57:41;18.90;99.90
17027;DHT22;8630;50.500;12.164;2022-08-25T05:00:09;19.50;99.90
17027;DHT22;8630;50.500;12.164;2022-08-25T05:02:37;20.10;99.90
17027;DHT22;8630;50.500;12.164;2022-08-25T05:05:05;20.80;99.90
17027;DHT22;8630;50.500;12.164;2022-08-25T05:07:32;21.40;99.90
17027;DHT22;8630;50.500;12.164;2022-08-25T05:09:59;22.00;99.90
17027;DHT22;8630;50.500;12.164;2022-08-25T05:12:26;22.50;99.90
17027;DHT22;8630;50.500;12.164;2022-08-25T05:14:53;23.00;99.90
17027;DHT22;8630;50.500;12.164;2022-08-25T05:17:20;23.40;99.90
17027;DHT22;8630;50.500;12.164;2022-08-25T05:19:48;24.00;99.90
17027;DHT22;8630;50.500;12.164;2022-08-25T05:22:15;24.60;99.90
17027;DHT22;8630;50.500;12.164;2022-08-25T05:24:42;25.20;99.90
17027;DHT22;8630;50.500;12.164;2022-08-25T05:27:09;25.70;99.90
17027;DHT22;8630;50.500;12.164;2022-08-25T05:29:36;26.30;99.90
17027;DHT22;8630;50.500;12.164;2022-08-25T05:32:03;27.00;99.90
17027;DHT22;8630;50.500;12.164;2022-08-25T05:34:30;27.70;99.90
17027;DHT22;8630;50.500;12.164;2022-08-25T05:36:58;28.30;99.90
17027;DHT22;8630;50.500;12.164;2022-08-25T05:39:27;28.80;98.80
17027;DHT22;8630;50.500;12.164;2022-08-25T05:41:57;29.30;97.30
17027;DHT22;8630;50.500;12.164;2022-08-25T05:44:23;29.60;95.70
17027;DHT22;8630;50.500;12.164;2022-08-25T05:46:51;29.70;94.20
17027;DHT22;8630;50.500;12.164;2022-08-25T05:49:18;29.10;93.50
17027;DHT22;8630;50.500;12.164;2022-08-25T05:51:45;28.20;94.20
17027;DHT22;8630;50.500;12.164;2022-08-25T05:54:14;27.20;94.60
17027;DHT22;8630;50.500;12.164;2022-08-25T05:56:40;26.50;95.50
17027;DHT22;8630;50.500;12.164;2022-08-25T05:59:09;25.90;96.50
17027;DHT22;8630;50.500;12.164;2022-08-25T06:01:37;25.30;97.20
17027;DHT22;8630;50.500;12.164;2022-08-25T06:04:21;24.90;97.90
17027;DHT22;8630;50.500;12.164;2022-08-25T06:06:49;24.50;98.70
17027;DHT22;8630;50.500;12.164;2022-08-25T06:09:19;24.20;99.30
17027;DHT22;8630;50.500;12.164;2022-08-25T06:11:47;23.80;99.90
17027;DHT22;8630;50.500;12.164;2022-08-25T06:14:14;23.60;99.90
17027;DHT22;8630;50.500;12.164;2022-08-25T06:16:42;23.40;99.90
17027;DHT22;8630;50.500;12.164;2022-08-25T06:19:09;23.20;99.90
17027;DHT22;8630;50.500;12.164;2022-08-25T06:21:36;23.10;99.90
17027;DHT22;8630;50.500;12.164;2022-08-25T06:24:05;22.80;99.90
17027;DHT22;8630;50.500;12.164;2022-08-25T06:26:34;22.60;99.90
17027;DHT22;8630;50.500;12.164;2022-08-25T06:29:02;22.40;99.90
17027;DHT22;8630;50.500;12.164;2022-08-25T06:31:29;22.20;99.90
17027;DHT22;8630;50.500;12.164;2022-08-25T06:33:56;22.20;99.90
17027;DHT22;8630;50.500;12.164;2022-08-25T06:36:23;22.10;99.90
17027;DHT22;8630;50.500;12.164;2022-08-25T06:38:51;22.10;99.90
17027;DHT22;8630;50.500;12.164;2022-08-25T06:41:19;22.10;99.90
17027;DHT22;8630;50.500;12.164;2022-08-25T06:43:47;22.10;99.90
17027;DHT22;8630;50.500;12.164;2022-08-25T06:46:16;22.10;99.90
17027;DHT22;8630;50.500;12.164;2022-08-25T06:48:44;22.20;99.90
17027;DHT22;8630;50.500;12.164;2022-08-25T06:51:12;22.20;99.90
17027;DHT22;8630;50.500;12.164;2022-08-25T06:53:42;22.30;99.90
17027;DHT22;8630;50.500;12.164;2022-08-25T06:56:10;22.30;99.90
17027;DHT22;8630;50.500;12.164;2022-08-25T06:58:37;22.50;99.90
17027;DHT22;8630;50.500;12.164;2022-08-25T07:01:14;22.60;99.90
17027;DHT22;8630;50.500;12.164;2022-08-25T07:03:42;22.70;99.90
17027;DHT22;8630;50.500;12.164;2022-08-25T07:06:09;22.80;99.90
17027;DHT22;8630;50.500;12.164;2022-08-25T07:08:36;22.90;99.90
17027;DHT22;8630;50.500;12.164;2022-08-25T07:11:04;23.00;99.90
17027;DHT22;8630;50.500;12.164;2022-08-25T07:13:31;23.10;99.90
17027;DHT22;8630;50.500;12.164;2022-08-25T07:15:58;23.20;99.90
17027;DHT22;8630;50.500;12.164;2022-08-25T07:18:27;23.40;99.90
17027;DHT22;8630;50.500;12.164;2022-08-25T07:20:54;23.50;99.90
17027;DHT22;8630;50.500;12.164;2022-08-25T07:23:23;23.50;99.90
17027;DHT22;8630;50.500;12.164;2022-08-25T07:25:51;23.60;99.90
17027;DHT22;8630;50.500;12.164;2022-08-25T07:28:20;23.70;99.90
17027;DHT22;8630;50.500;12.164;2022-08-25T07:30:48;23.70;99.90
17027;DHT22;8630;50.500;12.164;2022-08-25T07:33:16;23.80;99.90
17027;DHT22;8630;50.500;12.164;2022-08-25T07:35:44;23.70;99.90
17027;DHT22;8630;50.500;12.164;2022-08-25T07:38:11;23.80;99.90
17027;DHT22;8630;50.500;12.164;2022-08-25T07:40:38;23.90;99.90
17027;DHT22;8630;50.500;12.164;2022-08-25T07:43:06;24.00;99.90
17027;DHT22;8630;50.500;12.164;2022-08-25T07:45:35;24.10;99.90
17027;DHT22;8630;50.500;12.164;2022-08-25T07:48:05;24.20;99.90
17027;DHT22;8630;50.500;12.164;2022-08-25T07:50:35;24.20;99.90
17027;DHT22;8630;50.500;12.164;2022-08-25T07:53:05;24.30;99.90
17027;DHT22;8630;50.500;12.164;2022-08-25T07:55:32;24.30;99.90
17027;DHT22;8630;50.500;12.164;2022-08-25T07:58:01;24.40;99.90
17027;DHT22;8630;50.500;12.164;2022-08-25T08:00:29;24.40;99.90
17027;DHT22;8630;50.500;12.164;2022-08-25T08:02:59;24.50;99.90
17027;DHT22;8630;50.500;12.164;2022-08-25T08:05:27;24.60;99.90
17027;DHT22;8630;50.500;12.164;2022-08-25T08:07:54;24.60;99.90
17027;DHT22;8630;50.500;12.164;2022-08-25T08:10:23;24.70;99.90
17027;DHT22;8630;50.500;12.164;2022-08-25T08:12:51;24.80;99.90
17027;DHT22;8630;50.500;12.164;2022-08-25T08:15:19;24.60;99.90
17027;DHT22;8630;50.500;12.164;2022-08-25T08:17:46;24.60;99.90
17027;DHT22;8630;50.500;12.164;2022-08-25T08:20:13;24.60;99.90
17027;DHT22;8630;50.500;12.164;2022-08-25T08:22:42;24.70;99.90
17027;DHT22;8630;50.500;12.164;2022-08-25T08:25:10;24.70;99.90
17027;DHT22;8630;50.500;12.164;2022-08-25T08:27:39;24.80;99.90
17027;DHT22;8630;50.500;12.164;2022-08-25T08:30:11;24.90;99.90
17027;DHT22;8630;50.500;12.164;2022-08-25T08:32:39;25.10;99.90
17027;DHT22;8630;50.500;12.164;2022-08-25T08:35:06;25.10;99.90
17027;DHT22;8630;50.500;12.164;2022-08-25T08:37:34;25.30;99.90
17027;DHT22;8630;50.500;12.164;2022-08-25T08:40:04;25.40;99.90
17027;DHT22;8630;50.500;12.164;2022-08-25T08:42:49;25.50;99.90
17027;DHT22;8630;50.500;12.164;2022-08-25T08:45:28;25.60;99.90
17027;DHT22;8630;50.500;12.164;2022-08-25T08:48:07;25.80;99.90
17027;DHT22;8630;50.500;12.164;2022-08-25T08:50:42;25.90;99.90
17027;DHT22;8630;50.500;12.164;2022-08-25T08:53:18;26.00;99.90
17027;DHT22;8630;50.500;12.164;2022-08-25T08:55:50;26.00;99.90
17027;DHT22;8630;50.500;12.164;2022-08-25T08:58:21;26.00;99.90
17027;DHT22;8630;50.500;12.164;2022-08-25T09:00:51;26.20;99.90
17027;DHT22;8630;50.500;12.164;2022-08-25T09:03:28;26.30;99.90
17027;DHT22;8630;50.500;12.164;2022-08-25T09:06:01;26.30;99.90
17027;DHT22;8630;50.500;12.164;2022-08-25T09:08:29;26.40;99.90
17027;DHT22;8630;50.500;12.164;2022-08-25T09:11:01;26.50;99.90
17027;DHT22;8630;50.500;12.164;2022-08-25T09:13:48;26.50;99.90
17027;DHT22;8630;50.500;12.164;2022-08-25T09:16:27;26.50;99.90
17027;DHT22;8630;50.500;12.164;2022-08-25T09:19:24;26.60;99.90
17027;DHT22;8630;50.500;12.164;2022-08-25T09:22:00;26.70;99.90
17027;DHT22;8630;50.500;12.164;2022-08-25T09:24:42;26.70;99.70
17027;DHT22;8630;50.500;12.164;2022-08-25T09:27:22;26.70;99.60
17027;DHT22;8630;50.500;12.164;2022-08-25T09:30:10;26.70;99.60
17027;DHT22;8630;50.500;12.164;2022-08-25T09:32:41;26.70;99.80
17027;DHT22;8630;50.500;12.164;2022-08-25T09:35:15;26.80;99.70
17027;DHT22;8630;50.500;12.164;2022-08-25T09:37:55;26.90;99.30
17027;DHT22;8630;50.500;12.164;2022-08-25T09:40:23;26.80;99.00
17027;DHT22;8630;50.500;12.164;2022-08-25T09:42:51;26.90;98.90
17027;DHT22;8630;50.500;12.164;2022-08-25T09:45:33;27.00;98.70
17027;DHT22;8630;50.500;12.164;2022-08-25T09:48:02;27.00;98.30
17027;DHT22;8630;50.500;12.164;2022-08-25T09:50:47;27.10;98.30
17027;DHT22;8630;50.500;12.164;2022-08-25T09:53:15;27.10;98.30
17027;DHT22;8630;50.500;12.164;2022-08-25T09:55:51;27.30;98.40
17027;DHT22;8630;50.500;12.164;2022-08-25T09:58:22;27.60;98.20
17027;DHT22;8630;50.500;12.164;2022-08-25T10:01:10;27.40;97.90
17027;DHT22;8630;50.500;12.164;2022-08-25T10:03:56;27.50;98.20
17027;DHT22;8630;50.500;12.164;2022-08-25T10:06:23;27.60;98.10
17027;DHT22;8630;50.500;12.164;2022-08-25T10:08:55;27.70;98.00
17027;DHT22;8630;50.500;12.164;2022-08-25T10:11:34;27.70;97.90
17027;DHT22;8630;50.500;12.164;2022-08-25T10:14:17;27.80;98.00
17027;DHT22;8630;50.500;12.164;2022-08-25T10:16:47;27.80;97.90
17027;DHT22;8630;50.500;12.164;2022-08-25T10:19:24;27.70;97.80
17027;DHT22;8630;50.500;12.164;2022-08-25T10:22:05;27.70;97.90
17027;DHT22;8630;50.500;12.164;2022-08-25T10:24:33;27.70;97.90
17027;DHT22;8630;50.500;12.164;2022-08-25T10:27:05;27.70;97.90
17027;DHT22;8630;50.500;12.164;2022-08-25T10:30:00;27.90;97.90
17027;DHT22;8630;50.500;12.164;2022-08-25T10:32:56;28.30;97.60
17027;DHT22;8630;50.500;12.164;2022-08-25T10:35:30;28.60;97.10
17027;DHT22;8630;50.500;12.164;2022-08-25T10:38:10;28.90;96.70
17027;DHT22;8630;50.500;12.164;2022-08-25T10:40:45;29.10;96.40
17027;DHT22;8630;50.500;12.164;2022-08-25T10:43:22;29.30;96.30
17027;DHT22;8630;50.500;12.164;2022-08-25T10:45:56;29.40;95.80
17027;DHT22;8630;50.500;12.164;2022-08-25T10:48:49;29.40;95.40
17027;DHT22;8630;50.500;12.164;2022-08-25T10:51:32;29.30;95.40
17027;DHT22;8630;50.500;12.164;2022-08-25T10:54:07;29.20;95.40
17027;DHT22;8630;50.500;12.164;2022-08-25T10:56:38;29.40;95.40
17027;DHT22;8630;50.500;12.164;2022-08-25T10:59:21;29.70;94.90
17027;DHT22;8630;50.500;12.164;2022-08-25T11:02:14;29.80;94.50
17027;DHT22;8630;50.500;12.164;2022-08-25T11:04:51;29.90;94.40
17027;DHT22;8630;50.500;12.164;2022-08-25T11:07:27;29.90;94.20
17027;DHT22;8630;50.500;12.164;2022-08-25T11:09:58;29.80;94.20
17027;DHT22;8630;50.500;12.164;2022-08-25T11:12:30;29.90;94.00
17027;DHT22;8630;50.500;12.164;2022-08-25T11:15:02;30.00;94.10
17027;DHT22;8630;50.500;12.164;2022-08-25T11:17:38;30.20;93.90
17027;DHT22;8630;50.500;12.164;2022-08-25T11:20:11;30.40;93.50
17027;DHT22;8630;50.500;12.164;2022-08-25T11:22:45;30.30;92.90
17027;DHT22;8630;50.500;12.164;2022-08-25T11:25:17;30.20;93.20
17027;DHT22;8630;50.500;12.164;2022-08-25T11:27:50;30.10;93.40
17027;DHT22;8630;50.500;12.164;2022-08-25T11:30:20;30.10;93.40
17027;DHT22;8630;50.500;12.164;2022-08-25T11:32:49;30.00;93.10
17027;DHT22;8630;50.500;12.164;2022-08-25T11:35:25;29.80;93.10
17027;DHT22;8630;50.500;12.164;2022-08-25T11:38:04;29.60;93.40
17027;DHT22;8630;50.500;12.164;2022-08-25T11:40:47;29.50;93.40
17027;DHT22;8630;50.500;12.164;2022-08-25T11:43:45;29.60;93.80
17027;DHT22;8630;50.500;12.164;2022-08-25T11:46:24;29.80;93.70
17027;DHT22;8630;50.500;12.164;2022-08-25T11:49:00;29.90;93.70
17027;DHT22;8630;50.500;12.164;2022-08-25T11:51:39;30.10;93.10
17027;DHT22;8630;50.500;12.164;2022-08-25T11:54:20;30.30;92.70
17027;DHT22;8630;50.500;12.164;2022-08-25T11:57:00;30.30;92.50
17027;DHT22;8630;50.500;12.164;2022-08-25T12:00:00;30.40;92.60
17027;DHT22;8630;50.500;12.164;2022-08-25T12:02:35;30.60;92.00
17027;DHT22;8630;50.500;12.164;2022-08-25T12:05:04;30.60;91.90
17027;DHT22;8630;50.500;12.164;2022-08-25T12:08:03;30.50;91.30
17027;DHT22;8630;50.500;12.164;2022-08-25T12:10:57;30.60;90.80
17027;DHT22;8630;50.500;12.164;2022-08-25T12:13:40;30.60;90.00
17027;DHT22;8630;50.500;12.164;2022-08-25T12:16:39;30.60;89.40
17027;DHT22;8630;50.500;12.164;2022-08-25T12:19:26;30.90;89.70
17027;DHT22;8630;50.500;12.164;2022-08-25T12:21:55;31.30;89.50
17027;DHT22;8630;50.500;12.164;2022-08-25T12:24:46;31.40;88.30
17027;DHT22;8630;50.500;12.164;2022-08-25T12:27:23;31.40;88.30
17027;DHT22;8630;50.500;12.164;2022-08-25T12:29:55;31.30;87.50
17027;DHT22;8630;50.500;12.164;2022-08-25T12:32:39;31.20;86.90
17027;DHT22;8630;50.500;12.164;2022-08-25T12:35:21;31.10;86.80
17027;DHT22;8630;50.500;12.164;2022-08-25T12:37:58;30.80;86.00
17027;DHT22;8630;50.500;12.164;2022-08-25T12:40:32;30.60;86.00
17027;DHT22;8630;50.500;12.164;2022-08-25T12:43:03;30.40;85.90
17027;DHT22;8630;50.500;12.164;2022-08-25T12:45:37;30.20;86.30
17027;DHT22;8630;50.500;12.164;2022-08-25T12:48:41;30.00;86.90
17027;DHT22;8630;50.500;12.164;2022-08-25T12:51:16;29.90;86.20
17027;DHT22;8630;50.500;12.164;2022-08-25T12:53:47;29.90;86.60
17027;DHT22;8630;50.500;12.164;2022-08-25T12:56:24;29.90;86.90
17027;DHT22;8630;50.500;12.164;2022-08-25T12:59:06;29.90;87.60
17027;DHT22;8630;50.500;12.164;2022-08-25T13:02:00;29.90;86.30
17027;DHT22;8630;50.500;12.164;2022-08-25T13:05:02;29.80;85.80
17027;DHT22;8630;50.500;12.164;2022-08-25T13:07:47;29.70;86.70
17027;DHT22;8630;50.500;12.164;2022-08-25T13:10:21;29.80;87.20
17027;DHT22;8630;50.500;12.164;2022-08-25T13:12:59;29.90;85.70
17027;DHT22;8630;50.500;12.164;2022-08-25T13:15:33;30.10;84.60
17027;DHT22;8630;50.500;12.164;2022-08-25T13:18:21;30.30;84.00
17027;DHT22;8630;50.500;12.164;2022-08-25T13:20:51;30.40;82.80
17027;DHT22;8630;50.500;12.164;2022-08-25T13:23:24;30.40;83.10
17027;DHT22;8630;50.500;12.164;2022-08-25T13:25:52;30.50;83.10
17027;DHT22;8630;50.500;12.164;2022-08-25T13:28:29;30.70;83.10
17027;DHT22;8630;50.500;12.164;2022-08-25T13:30:59;30.90;82.60
17027;DHT22;8630;50.500;12.164;2022-08-25T13:33:27;31.00;82.50
17027;DHT22;8630;50.500;12.164;2022-08-25T13:35:55;31.10;82.50
17027;DHT22;8630;50.500;12.164;2022-08-25T13:38:36;31.20;81.00
17027;DHT22;8630;50.500;12.164;2022-08-25T13:41:04;31.30;80.70
17027;DHT22;8630;50.500;12.164;2022-08-25T13:43:34;31.40;79.90
17027;DHT22;8630;50.500;12.164;2022-08-25T13:46:05;31.40;78.60
17027;DHT22;8630;50.500;12.164;2022-08-25T13:48:34;31.50;78.60
17027;DHT22;8630;50.500;12.164;2022-08-25T13:51:15;31.40;77.70
17027;DHT22;8630;50.500;12.164;2022-08-25T13:53:48;31.20;77.40
17027;DHT22;8630;50.500;12.164;2022-08-25T13:56:23;31.10;77.40
17027;DHT22;8630;50.500;12.164;2022-08-25T13:58:53;31.10;77.10
17027;DHT22;8630;50.500;12.164;2022-08-25T14:01:22;31.10;77.10
17027;DHT22;8630;50.500;12.164;2022-08-25T14:03:53;31.10;76.60
17027;DHT22;8630;50.500;12.164;2022-08-25T14:06:23;31.10;76.40
17027;DHT22;8630;50.500;12.164;2022-08-25T14:09:10;31.10;76.40
17027;DHT22;8630;50.500;12.164;2022-08-25T14:11:43;31.00;76.10
17027;DHT22;8630;50.500;12.164;2022-08-25T14:14:29;30.90;76.50
17027;DHT22;8630;50.500;12.164;2022-08-25T14:17:03;30.90;77.10
17027;DHT22;8630;50.500;12.164;2022-08-25T14:19:30;31.00;77.20
17027;DHT22;8630;50.500;12.164;2022-08-25T14:21:58;31.00;78.40
17027;DHT22;8630;50.500;12.164;2022-08-25T14:24:31;31.10;77.60
17027;DHT22;8630;50.500;12.164;2022-08-25T14:27:00;31.20;76.70
17027;DHT22;8630;50.500;12.164;2022-08-25T14:29:30;31.20;76.30
17027;DHT22;8630;50.500;12.164;2022-08-25T14:31:58;31.30;76.10
17027;DHT22;8630;50.500;12.164;2022-08-25T14:34:29;31.20;75.40
17027;DHT22;8630;50.500;12.164;2022-08-25T14:37:01;31.30;75.30
17027;DHT22;8630;50.500;12.164;2022-08-25T14:39:28;31.20;75.50
17027;DHT22;8630;50.500;12.164;2022-08-25T14:41:56;31.30;76.10
17027;DHT22;8630;50.500;12.164;2022-08-25T14:44:23;31.40;76.10
17027;DHT22;8630;50.500;12.164;2022-08-25T14:46:53;31.50;76.10
17027;DHT22;8630;50.500;12.164;2022-08-25T14:49:24;31.50;74.30
17027;DHT22;8630;50.500;12.164;2022-08-25T14:51:56;31.50;73.00
17027;DHT22;8630;50.500;12.164;2022-08-25T14:54:25;31.50;73.00
17027;DHT22;8630;50.500;12.164;2022-08-25T14:56:53;31.50;72.30
17027;DHT22;8630;50.500;12.164;2022-08-25T14:59:21;31.40;71.20
17027;DHT22;8630;50.500;12.164;2022-08-25T15:01:48;31.40;71.00
17027;DHT22;8630;50.500;12.164;2022-08-25T15:04:20;31.40;70.80
17027;DHT22;8630;50.500;12.164;2022-08-25T15:06:52;31.40;70.90
17027;DHT22;8630;50.500;12.164;2022-08-25T15:09:22;31.40;71.10
17027;DHT22;8630;50.500;12.164;2022-08-25T15:11:50;31.40;71.00
17027;DHT22;8630;50.500;12.164;2022-08-25T15:14:19;31.50;71.20
17027;DHT22;8630;50.500;12.164;2022-08-25T15:16:49;31.50;71.70
17027;DHT22;8630;50.500;12.164;2022-08-25T15:19:21;31.60;70.80
17027;DHT22;8630;50.500;12.164;2022-08-25T15:21:49;31.70;69.80
17027;DHT22;8630;50.500;12.164;2022-08-25T15:24:17;31.70;68.70
17027;DHT22;8630;50.500;12.164;2022-08-25T15:26:46;31.70;68.30
17027;DHT22;8630;50.500;12.164;2022-08-25T15:29:15;31.70;68.10
17027;DHT22;8630;50.500;12.164;2022-08-25T15:31:42;31.70;68.70
17027;DHT22;8630;50.500;12.164;2022-08-25T15:34:10;31.70;68.00
17027;DHT22;8630;50.500;12.164;2022-08-25T15:36:38;31.70;67.30
17027;DHT22;8630;50.500;12.164;2022-08-25T15:39:07;31.50;67.60
17027;DHT22;8630;50.500;12.164;2022-08-25T15:41:34;31.40;68.10
17027;DHT22;8630;50.500;12.164;2022-08-25T15:44:06;31.20;68.40
17027;DHT22;8630;50.500;12.164;2022-08-25T15:46:39;31.10;68.40
17027;DHT22;8630;50.500;12.164;2022-08-25T15:49:06;31.00;69.10
17027;DHT22;8630;50.500;12.164;2022-08-25T15:51:33;30.80;69.60
17027;DHT22;8630;50.500;12.164;2022-08-25T15:54:02;30.70;69.40
17027;DHT22;8630;50.500;12.164;2022-08-25T15:56:29;30.60;69.10